Virtual Norwegian is not affiliated with Norwegian Air Shuttle in any way.
If you are looking for the real "Norwegian", or you wish to book Norwegian flights, please visit Norwegian.com


We use cookies to ensure you get the best experience on our website.   ACCEPT

ENDU - BDU - Bardufoss (Bardufoss)

General Info Alternate Airport
ICAO: ENDU Elevation: 252 ft ICAO: ENTC
IATA: BDU Country: Norway IATA: TOS
City: Bardufoss Charts: Log in to view charts City: Tromso
Name: Bardufoss Hub: No Name Langnes
General Info
ICAO: ENDU
IATA: BDU
City: Bardufoss
Name: Bardufoss
Elevation: 252 ft
Country: Norway
Charts: Log in to view charts
Hub: No
 
Alternate Airport
ICAO: ENTC
IATA: TOS
City: Tromso
Name: Langnes

Weather
261650Z VRB02KT 9999 VCSH FEW035 BKN055 14/07 Q0994 NOSIG RMK WIND 1100FT 33005KT WIND 2200FT 36008KT
Weather
261650Z VRB02KT 9999 VCSH FEW035 BKN055 14/07 Q0994 NOSIG RMK WIND 1100FT 33005KT WIND 2200FT 36008KT

Runway Info
10
Length ILS/LOC Course
2443 m 110.30 107
28
Length ILS/LOC Course
2443 m 108.70 282

NOTAMs
NOTAMs currently unavailable.
NOTAMs
NOTAMs currently unavailable

Route map
Airport
Airport (hub)